Time;durP1;ratioP1;P1;durP2;ratioP2;P2;SDS_P1;SDS_P2;PMS_P1;PMS_P2;Temp;Humidity;BMP_temperature;BMP_pressure;BME280_temperature;BME280_humidity;BME280_pressure;Samples;Min_cycle;Max_cycle;Signal;HPM_P1;HPM_P2
2022/09/07 00:00:09;;;;;;;;;;;22.50;74.80;;;;;;4918182;29;20296;-65
2022/09/07 00:02:35;;;;;;;;;;;22.40;75.10;;;;;;4918388;29;20383;-64
2022/09/07 00:05:00;;;;;;;;;;;22.40;75.20;;;;;;4918173;29;20288;-63
2022/09/07 00:07:26;;;;;;;;;;;22.40;75.50;;;;;;4918132;29;20220;-63
2022/09/07 00:09:52;;;;;;;;;;;22.40;75.50;;;;;;4917975;29;19934;-64
2022/09/07 00:12:17;;;;;;;;;;;22.50;75.50;;;;;;4918156;29;20014;-64
2022/09/07 00:14:43;;;;;;;;;;;22.50;75.40;;;;;;4918136;29;19926;-65
2022/09/07 00:17:08;;;;;;;;;;;22.50;75.40;;;;;;4916674;29;20311;-65
2022/09/07 00:19:34;;;;;;;;;;;22.50;75.50;;;;;;4917663;29;20014;-64
2022/09/07 00:21:59;;;;;;;;;;;22.50;75.40;;;;;;4912566;29;19918;-64
2022/09/07 00:24:26;;;;;;;;;;;22.40;75.70;;;;;;4913079;29;19919;-64
2022/09/07 00:26:53;;;;;;;;;;;22.50;75.60;;;;;;4910698;29;19915;-64
2022/09/07 00:29:19;;;;;;;;;;;22.50;75.00;;;;;;4912037;29;19915;-64
2022/09/07 00:31:45;;;;;;;;;;;22.50;74.90;;;;;;4917680;29;19922;-64
2022/09/07 00:34:10;;;;;;;;;;;22.40;74.80;;;;;;4917805;29;20438;-64
2022/09/07 00:36:36;;;;;;;;;;;22.50;74.80;;;;;;4917667;29;19915;-64
2022/09/07 00:39:01;;;;;;;;;;;22.60;74.20;;;;;;4917590;29;19915;-65
2022/09/07 00:41:27;;;;;;;;;;;22.60;74.20;;;;;;4917613;29;19915;-65
2022/09/07 00:43:54;;;;;;;;;;;22.60;74.20;;;;;;4917442;29;19911;-65
2022/09/07 00:46:25;;;;;;;;;;;22.60;74.50;;;;;;4917620;29;20476;-65
2022/09/07 00:49:01;;;;;;;;;;;22.60;74.50;;;;;;4917558;29;20276;-66
2022/09/07 00:51:32;;;;;;;;;;;22.60;74.60;;;;;;4917775;29;19915;-65
2022/09/07 00:54:00;;;;;;;;;;;22.60;75.00;;;;;;4901470;29;19956;-65
2022/09/07 00:56:28;;;;;;;;;;;22.60;75.40;;;;;;4917334;29;19911;-65
2022/09/07 00:58:54;;;;;;;;;;;22.60;75.70;;;;;;4917147;29;19971;-63
2022/09/07 01:01:20;;;;;;;;;;;22.60;76.10;;;;;;4917224;29;19918;-64
2022/09/07 01:03:47;;;;;;;;;;;22.70;75.90;;;;;;4917209;29;20430;-63
2022/09/07 01:06:15;;;;;;;;;;;22.80;75.50;;;;;;4917491;29;20303;-64
2022/09/07 01:08:41;;;;;;;;;;;22.80;75.30;;;;;;4916961;29;19934;-64
2022/09/07 01:11:07;;;;;;;;;;;22.70;75.70;;;;;;4916848;29;19934;-65
2022/09/07 01:13:33;;;;;;;;;;;22.70;76.10;;;;;;4917149;29;20379;-64
2022/09/07 01:16:05;;;;;;;;;;;22.70;76.20;;;;;;4916827;29;20335;-64
2022/09/07 01:18:31;;;;;;;;;;;22.60;76.60;;;;;;4916879;29;19952;-64
2022/09/07 01:21:08;;;;;;;;;;;22.50;76.90;;;;;;4916665;29;19945;-64
2022/09/07 01:23:34;;;;;;;;;;;22.40;77.40;;;;;;4904226;29;20378;-64
2022/09/07 01:26:15;;;;;;;;;;;22.40;77.90;;;;;;4916662;29;19911;-66
2022/09/07 01:28:41;;;;;;;;;;;22.40;78.10;;;;;;4916685;29;19927;-64
2022/09/07 01:31:25;;;;;;;;;;;22.20;78.90;;;;;;4916464;29;19911;-64
2022/09/07 01:33:59;;;;;;;;;;;22.30;79.00;;;;;;4916582;29;19919;-64
2022/09/07 01:36:32;;;;;;;;;;;22.30;79.00;;;;;;4916547;29;19915;-64
2022/09/07 01:39:00;;;;;;;;;;;22.30;78.70;;;;;;4916494;29;19912;-64
2022/09/07 01:41:38;;;;;;;;;;;22.30;78.80;;;;;;4916412;29;19918;-65
2022/09/07 01:44:04;;;;;;;;;;;22.20;80.10;;;;;;4916534;29;19911;-65
2022/09/07 01:46:32;;;;;;;;;;;22.30;78.90;;;;;;4916348;29;19954;-65
2022/09/07 01:49:07;;;;;;;;;;;22.50;78.00;;;;;;4916453;29;19975;-65
2022/09/07 01:51:34;;;;;;;;;;;22.50;78.40;;;;;;4916336;29;20369;-65
2022/09/07 01:54:05;;;;;;;;;;;22.50;77.70;;;;;;4903492;29;19915;-65
2022/09/07 01:56:33;;;;;;;;;;;22.40;78.20;;;;;;4916258;29;20380;-65
2022/09/07 01:59:01;;;;;;;;;;;22.40;78.70;;;;;;4916297;29;19922;-65
2022/09/07 02:01:31;;;;;;;;;;;22.30;79.10;;;;;;4916354;29;19959;-63
2022/09/07 02:04:03;;;;;;;;;;;22.30;79.20;;;;;;4916098;29;19915;-64
2022/09/07 02:06:30;;;;;;;;;;;22.20;79.80;;;;;;4916188;29;19959;-64
2022/09/07 02:09:02;;;;;;;;;;;22.10;80.10;;;;;;4916113;29;19931;-64
2022/09/07 02:11:38;;;;;;;;;;;22.10;80.20;;;;;;4916353;29;20264;-66
2022/09/07 02:14:13;;;;;;;;;;;22.10;80.50;;;;;;4915864;29;20006;-64
2022/09/07 02:17:02;;;;;;;;;;;22.10;79.70;;;;;;4916036;29;19916;-64
2022/09/07 02:19:29;;;;;;;;;;;22.10;80.20;;;;;;4899581;29;19911;-64
2022/09/07 02:21:57;;;;;;;;;;;22.10;79.30;;;;;;4915917;29;19958;-63
2022/09/07 02:24:24;;;;;;;;;;;22.20;78.90;;;;;;4904647;29;19911;-64
2022/09/07 02:26:52;;;;;;;;;;;22.10;78.20;;;;;;4916059;29;19916;-64
2022/09/07 02:29:17;;;;;;;;;;;22.20;78.10;;;;;;4915893;29;19915;-64
2022/09/07 02:31:43;;;;;;;;;;;22.20;78.00;;;;;;4915697;29;20338;-64
2022/09/07 02:34:09;;;;;;;;;;;22.20;78.10;;;;;;4915789;29;19919;-64
2022/09/07 02:36:41;;;;;;;;;;;22.10;78.50;;;;;;4915826;29;19915;-65
2022/09/07 02:39:06;;;;;;;;;;;22.10;78.70;;;;;;4915829;29;19912;-64
2022/09/07 02:41:41;;;;;;;;;;;22.00;78.90;;;;;;4915700;29;19970;-64
2022/09/07 02:44:22;;;;;;;;;;;22.00;78.90;;;;;;4915820;29;19911;-65
2022/09/07 02:47:06;;;;;;;;;;;22.00;79.00;;;;;;4915849;29;20367;-65
2022/09/07 02:49:40;;;;;;;;;;;21.80;79.40;;;;;;4915812;29;19977;-65
2022/09/07 02:52:15;;;;;;;;;;;21.90;79.00;;;;;;4900071;29;19957;-65
2022/09/07 02:54:46;;;;;;;;;;;22.00;77.90;;;;;;4915757;29;19931;-64
2022/09/07 02:57:12;;;;;;;;;;;22.00;77.30;;;;;;4915853;29;20287;-65
2022/09/07 02:59:40;;;;;;;;;;;22.00;77.90;;;;;;4915544;29;19922;-65
2022/09/07 03:02:09;;;;;;;;;;;22.00;77.70;;;;;;4915513;29;20412;-64
2022/09/07 03:04:49;;;;;;;;;;;22.00;78.00;;;;;;4915711;29;19917;-65
2022/09/07 03:07:17;;;;;;;;;;;22.00;78.40;;;;;;4915357;29;20006;-65
2022/09/07 03:09:45;;;;;;;;;;;21.90;78.30;;;;;;4915510;29;19923;-64
2022/09/07 03:12:11;;;;;;;;;;;21.80;79.20;;;;;;4915649;29;19915;-64
2022/09/07 03:14:39;;;;;;;;;;;21.70;79.90;;;;;;4915609;29;19923;-64
2022/09/07 03:17:04;;;;;;;;;;;21.60;79.90;;;;;;4917484;29;20360;-64
2022/09/07 03:19:30;;;;;;;;;;;21.60;79.60;;;;;;4918964;29;20010;-64
2022/09/07 03:21:55;;;;;;;;;;;21.70;79.50;;;;;;4919517;29;20285;-65
2022/09/07 03:24:21;;;;;;;;;;;21.60;79.30;;;;;;4909652;29;19922;-65
2022/09/07 03:26:52;;;;;;;;;;;21.60;79.60;;;;;;4920744;29;20275;-64
2022/09/07 03:29:18;;;;;;;;;;;21.50;79.90;;;;;;4920825;29;20361;-64
2022/09/07 03:31:44;;;;;;;;;;;21.50;79.60;;;;;;4919060;29;19923;-64
2022/09/07 03:34:10;;;;;;;;;;;21.50;79.60;;;;;;4918630;29;20367;-65
2022/09/07 03:36:35;;;;;;;;;;;21.50;79.80;;;;;;4918532;29;19915;-65
2022/09/07 03:39:01;;;;;;;;;;;21.50;79.80;;;;;;4918788;29;19915;-65
2022/09/07 03:41:27;;;;;;;;;;;21.50;79.90;;;;;;4918674;29;19922;-63
2022/09/07 03:43:53;;;;;;;;;;;21.50;80.00;;;;;;4918638;29;19922;-63
2022/09/07 03:46:18;;;;;;;;;;;21.50;79.60;;;;;;4918601;29;19915;-63
2022/09/07 03:48:44;;;;;;;;;;;21.60;79.10;;;;;;4918321;29;19922;-64
2022/09/07 03:51:11;;;;;;;;;;;21.60;79.20;;;;;;4918648;29;19911;-65
2022/09/07 03:53:38;;;;;;;;;;;21.50;79.30;;;;;;4905901;29;19922;-64
2022/09/07 03:56:05;;;;;;;;;;;21.50;79.20;;;;;;4918494;29;19923;-64
2022/09/07 03:58:31;;;;;;;;;;;21.60;78.50;;;;;;4918331;29;20383;-63
2022/09/07 04:00:57;;;;;;;;;;;21.60;79.00;;;;;;4918202;29;19963;-65
2022/09/07 04:03:23;;;;;;;;;;;21.70;79.20;;;;;;4918019;29;19915;-64
2022/09/07 04:05:48;;;;;;;;;;;21.60;79.40;;;;;;4918262;29;20418;-64
2022/09/07 04:08:14;;;;;;;;;;;21.70;79.10;;;;;;4918235;29;19919;-64
2022/09/07 04:10:40;;;;;;;;;;;21.70;79.40;;;;;;4917890;29;19951;-64
2022/09/07 04:13:05;;;;;;;;;;;21.70;79.80;;;;;;4918111;29;19911;-66
2022/09/07 04:15:31;;;;;;;;;;;21.80;79.80;;;;;;4917799;29;19977;-66
2022/09/07 04:17:57;;;;;;;;;;;21.80;80.10;;;;;;4916647;29;20299;-66
2022/09/07 04:20:22;;;;;;;;;;;21.80;79.90;;;;;;4917844;29;19915;-66
2022/09/07 04:22:48;;;;;;;;;;;21.80;79.60;;;;;;4903318;29;20042;-66
2022/09/07 04:25:14;;;;;;;;;;;21.70;79.40;;;;;;4917991;29;19922;-66
2022/09/07 04:27:40;;;;;;;;;;;21.70;79.30;;;;;;4917635;29;19919;-66
2022/09/07 04:30:05;;;;;;;;;;;21.60;78.80;;;;;;4917747;29;20001;-65
2022/09/07 04:32:31;;;;;;;;;;;21.80;78.10;;;;;;4917819;29;19954;-65
2022/09/07 04:34:57;;;;;;;;;;;21.80;77.50;;;;;;4917566;29;19930;-66
2022/09/07 04:37:22;;;;;;;;;;;22.00;77.50;;;;;;4917627;29;20359;-66
2022/09/07 04:39:48;;;;;;;;;;;22.10;76.10;;;;;;4917498;29;19969;-65
2022/09/07 04:42:13;;;;;;;;;;;22.20;76.90;;;;;;4917638;29;19919;-65
2022/09/07 04:44:39;;;;;;;;;;;22.20;77.10;;;;;;4917510;29;19918;-65
2022/09/07 04:47:05;;;;;;;;;;;22.30;76.70;;;;;;4917368;29;20002;-65
2022/09/07 04:49:30;;;;;;;;;;;22.30;76.60;;;;;;4917737;29;19915;-64
2022/09/07 04:51:56;;;;;;;;;;;22.30;75.50;;;;;;4917356;29;20438;-65
2022/09/07 04:54:22;;;;;;;;;;;22.30;75.10;;;;;;4906948;29;19974;-66
2022/09/07 04:56:47;;;;;;;;;;;22.40;74.10;;;;;;4917087;29;20018;-66
2022/09/07 04:59:13;;;;;;;;;;;22.50;73.90;;;;;;4917298;29;20232;-66
2022/09/07 05:01:38;;;;;;;;;;;22.60;74.40;;;;;;4917261;29;20356;-65
2022/09/07 05:04:04;;;;;;;;;;;22.60;74.90;;;;;;4917178;29;20363;-64
2022/09/07 05:06:30;;;;;;;;;;;22.50;75.50;;;;;;4917235;29;19919;-66
2022/09/07 05:08:56;;;;;;;;;;;22.50;76.60;;;;;;4916988;29;20447;-65
2022/09/07 05:11:22;;;;;;;;;;;22.50;77.00;;;;;;4917191;29;20009;-64
2022/09/07 05:13:48;;;;;;;;;;;22.40;77.20;;;;;;4916869;29;20252;-64
2022/09/07 05:16:15;;;;;;;;;;;22.40;77.80;;;;;;4916949;29;19966;-66
2022/09/07 05:18:41;;;;;;;;;;;22.50;78.20;;;;;;4916845;29;19922;-66
2022/09/07 05:21:07;;;;;;;;;;;22.50;78.10;;;;;;4916957;29;19915;-68
2022/09/07 05:23:33;;;;;;;;;;;22.50;78.10;;;;;;4903711;29;20502;-68
2022/09/07 05:25:59;;;;;;;;;;;22.50;77.80;;;;;;4916859;29;19987;-65
2022/09/07 05:28:24;;;;;;;;;;;22.50;77.70;;;;;;4916886;29;19911;-64
2022/09/07 05:30:50;;;;;;;;;;;22.50;77.70;;;;;;4916731;29;19915;-68
2022/09/07 05:33:15;;;;;;;;;;;22.60;78.00;;;;;;4916600;29;19911;-65
2022/09/07 05:35:41;;;;;;;;;;;22.60;78.30;;;;;;4916648;29;19923;-66
2022/09/07 05:38:06;;;;;;;;;;;22.70;77.60;;;;;;4916037;29;19919;-64
2022/09/07 05:40:32;;;;;;;;;;;22.80;77.10;;;;;;4916425;29;19911;-65
2022/09/07 05:42:58;;;;;;;;;;;22.80;76.90;;;;;;4916673;29;19978;-65
2022/09/07 05:45:23;;;;;;;;;;;22.90;77.30;;;;;;4916473;29;19971;-68
2022/09/07 05:47:49;;;;;;;;;;;23.00;78.30;;;;;;4916481;29;19911;-69
2022/09/07 05:50:15;;;;;;;;;;;23.00;78.70;;;;;;4916174;29;20368;-65
2022/09/07 05:52:41;;;;;;;;;;;23.10;78.20;;;;;;4907853;29;19919;-65
2022/09/07 05:55:07;;;;;;;;;;;23.20;78.50;;;;;;4916296;29;19946;-66
2022/09/07 05:57:33;;;;;;;;;;;23.20;78.80;;;;;;4916436;29;19915;-66
2022/09/07 05:59:58;;;;;;;;;;;23.30;78.30;;;;;;4914837;29;19990;-67
2022/09/07 06:02:24;;;;;;;;;;;23.40;76.50;;;;;;4916404;29;19915;-64
2022/09/07 06:04:49;;;;;;;;;;;23.40;75.10;;;;;;4916352;29;20367;-64
2022/09/07 06:07:15;;;;;;;;;;;23.50;73.90;;;;;;4916277;29;20002;-64
2022/09/07 06:09:40;;;;;;;;;;;23.60;73.90;;;;;;4915916;29;19967;-64
2022/09/07 06:12:06;;;;;;;;;;;23.90;74.40;;;;;;4915886;29;19911;-65
2022/09/07 06:14:32;;;;;;;;;;;24.30;74.30;;;;;;4915932;29;19919;-66
2022/09/07 06:16:57;;;;;;;;;;;24.60;73.00;;;;;;4915967;29;19915;-65
2022/09/07 06:19:23;;;;;;;;;;;24.90;71.80;;;;;;4915888;29;19915;-66
2022/09/07 06:21:49;;;;;;;;;;;25.30;70.00;;;;;;4916001;29;19998;-67
2022/09/07 06:24:14;;;;;;;;;;;25.40;68.70;;;;;;4904958;29;20007;-67
2022/09/07 06:26:40;;;;;;;;;;;25.40;67.30;;;;;;4915826;29;19918;-68
2022/09/07 06:29:06;;;;;;;;;;;25.30;67.10;;;;;;4915878;29;20332;-65
2022/09/07 06:31:31;;;;;;;;;;;25.20;67.80;;;;;;4915696;29;19915;-69
2022/09/07 06:33:57;;;;;;;;;;;25.20;69.10;;;;;;4915832;29;19997;-68
2022/09/07 06:36:26;;;;;;;;;;;25.30;70.00;;;;;;4915779;29;19915;-68
2022/09/07 06:38:51;;;;;;;;;;;25.30;68.50;;;;;;4915953;29;19915;-66
2022/09/07 06:41:18;;;;;;;;;;;25.30;67.10;;;;;;4915910;29;19923;-69
2022/09/07 06:43:44;;;;;;;;;;;25.30;66.40;;;;;;4915616;29;20399;-66
2022/09/07 06:46:10;;;;;;;;;;;25.30;68.00;;;;;;4915837;29;19965;-66
2022/09/07 06:48:36;;;;;;;;;;;25.30;67.00;;;;;;4915718;29;20006;-67
2022/09/07 06:51:03;;;;;;;;;;;25.30;67.00;;;;;;4918898;29;19922;-67
2022/09/07 06:53:30;;;;;;;;;;;25.30;66.90;;;;;;4906668;29;19915;-70
2022/09/07 06:55:55;;;;;;;;;;;25.30;67.00;;;;;;4919451;29;20359;-68
2022/09/07 06:58:23;;;;;;;;;;;25.30;66.10;;;;;;4919350;29;19915;-67
2022/09/07 07:00:49;;;;;;;;;;;25.40;65.80;;;;;;4919339;29;19926;-67
2022/09/07 07:03:14;;;;;;;;;;;25.40;68.80;;;;;;4919133;29;19915;-67
2022/09/07 07:05:40;;;;;;;;;;;25.40;69.30;;;;;;4919596;29;19911;-64
2022/09/07 07:08:06;;;;;;;;;;;25.40;68.70;;;;;;4919028;29;19915;-70
2022/09/07 07:10:35;;;;;;;;;;;25.40;67.10;;;;;;4918996;29;19923;-68
2022/09/07 07:13:01;;;;;;;;;;;25.50;66.90;;;;;;4918948;29;19975;-68
2022/09/07 07:15:27;;;;;;;;;;;25.40;64.80;;;;;;4918974;29;19919;-68
2022/09/07 07:17:52;;;;;;;;;;;25.40;64.30;;;;;;4918897;29;20419;-66
2022/09/07 07:20:20;;;;;;;;;;;25.50;63.20;;;;;;4918346;29;20197;-69
2022/09/07 07:22:50;;;;;;;;;;;25.50;62.80;;;;;;4904418;29;20364;-66
2022/09/07 07:25:15;;;;;;;;;;;25.50;62.50;;;;;;4918786;29;19975;-64
2022/09/07 07:27:41;;;;;;;;;;;25.50;62.70;;;;;;4918849;29;19915;-68
2022/09/07 07:30:07;;;;;;;;;;;25.50;62.40;;;;;;4918791;29;19911;-70
2022/09/07 07:32:32;;;;;;;;;;;25.40;62.70;;;;;;4918937;29;19962;-68
2022/09/07 07:34:58;;;;;;;;;;;25.40;62.90;;;;;;4918705;29;19967;-64
2022/09/07 07:37:23;;;;;;;;;;;25.40;64.20;;;;;;4918660;29;20253;-67
2022/09/07 07:39:49;;;;;;;;;;;25.30;65.50;;;;;;4918308;29;19962;-68
2022/09/07 07:42:15;;;;;;;;;;;25.30;64.30;;;;;;4919083;29;19911;-70
2022/09/07 07:44:40;;;;;;;;;;;25.30;64.70;;;;;;4918550;29;19934;-68
2022/09/07 07:47:06;;;;;;;;;;;25.30;65.30;;;;;;4918516;29;19922;-67
2022/09/07 07:49:31;;;;;;;;;;;25.30;65.50;;;;;;4918504;29;20010;-68
2022/09/07 07:51:57;;;;;;;;;;;25.30;65.70;;;;;;4918257;29;19918;-64
2022/09/07 07:54:23;;;;;;;;;;;25.40;65.80;;;;;;4902982;29;19919;-67
2022/09/07 07:56:48;;;;;;;;;;;25.50;66.30;;;;;;4918197;29;19915;-65
2022/09/07 07:59:14;;;;;;;;;;;25.30;67.00;;;;;;4917054;29;19911;-66
2022/09/07 08:01:39;;;;;;;;;;;25.30;67.70;;;;;;4917761;29;19961;-64
2022/09/07 08:04:05;;;;;;;;;;;25.30;67.80;;;;;;4918449;29;19918;-67
2022/09/07 08:06:30;;;;;;;;;;;25.20;69.20;;;;;;4918177;29;19923;-64
2022/09/07 08:08:56;;;;;;;;;;;25.10;70.40;;;;;;4917949;29;19923;-67
2022/09/07 08:11:22;;;;;;;;;;;25.10;69.20;;;;;;4918567;29;20443;-67
2022/09/07 08:13:48;;;;;;;;;;;25.10;69.20;;;;;;4918097;29;20291;-66
2022/09/07 08:16:15;;;;;;;;;;;25.10;69.10;;;;;;4917915;29;19981;-67
2022/09/07 08:18:40;;;;;;;;;;;25.00;69.20;;;;;;4919733;29;20459;-68
2022/09/07 08:21:08;;;;;;;;;;;25.00;70.20;;;;;;4921076;29;19950;-68
2022/09/07 08:23:34;;;;;;;;;;;25.10;70.20;;;;;;4912536;29;19911;-66
2022/09/07 08:26:00;;;;;;;;;;;25.10;69.60;;;;;;4919019;29;19916;-65
2022/09/07 08:28:26;;;;;;;;;;;25.20;70.00;;;;;;4919769;29;19911;-67
2022/09/07 08:30:52;;;;;;;;;;;25.20;69.40;;;;;;4919483;29;19962;-65
2022/09/07 08:33:18;;;;;;;;;;;25.20;69.80;;;;;;4917948;29;19911;-65
2022/09/07 08:35:57;;;;;;;;;;;25.30;70.10;;;;;;4917623;29;19994;-67
2022/09/07 08:38:22;;;;;;;;;;;25.30;69.70;;;;;;4917387;29;20268;-67
2022/09/07 08:40:48;;;;;;;;;;;25.30;69.10;;;;;;4917748;29;19971;-67
2022/09/07 08:43:32;;;;;;;;;;;25.10;68.60;;;;;;4917424;29;20364;-68
2022/09/07 08:46:16;;;;;;;;;;;25.20;68.60;;;;;;4917562;29;20002;-68
2022/09/07 08:48:42;;;;;;;;;;;25.10;68.40;;;;;;4928558;29;19911;-68
2022/09/07 08:51:11;;;;;;;;;;;24.80;69.20;;;;;;4909156;29;19911;-68
2022/09/07 08:53:42;;;;;;;;;;;24.90;69.40;;;;;;4906597;29;20019;-66
2022/09/07 08:56:12;;;;;;;;;;;25.00;68.50;;;;;;4917307;29;20343;-67
2022/09/07 08:58:43;;;;;;;;;;;25.10;68.30;;;;;;4917159;29;19912;-65
2022/09/07 09:01:12;;;;;;;;;;;25.40;68.90;;;;;;4917089;29;19915;-66
2022/09/07 09:03:38;;;;;;;;;;;25.20;67.60;;;;;;4917034;29;20332;-64
2022/09/07 09:06:06;;;;;;;;;;;25.30;67.50;;;;;;4917381;29;19919;-65
2022/09/07 09:08:50;;;;;;;;;;;25.30;68.00;;;;;;4916775;29;20392;-69
2022/09/07 09:11:18;;;;;;;;;;;25.40;67.00;;;;;;4916961;29;19915;-65
2022/09/07 09:13:53;;;;;;;;;;;25.50;67.50;;;;;;4916110;29;19911;-66
2022/09/07 09:16:22;;;;;;;;;;;25.70;66.90;;;;;;4916856;29;19919;-67
2022/09/07 09:18:47;;;;;;;;;;;25.60;67.30;;;;;;4916839;29;19911;-69
2022/09/07 09:21:17;;;;;;;;;;;25.40;67.40;;;;;;4916638;29;19959;-68
2022/09/07 09:23:45;;;;;;;;;;;25.50;67.90;;;;;;4902102;29;19911;-65
2022/09/07 09:26:29;;;;;;;;;;;25.60;67.90;;;;;;4916532;29;20018;-68
2022/09/07 09:28:56;;;;;;;;;;;25.70;68.10;;;;;;4916774;29;19962;-64
2022/09/07 09:31:24;;;;;;;;;;;25.90;67.40;;;;;;4916583;29;19919;-66
2022/09/07 09:34:06;;;;;;;;;;;26.00;66.20;;;;;;4916718;29;19915;-66
2022/09/07 09:36:34;;;;;;;;;;;26.10;65.90;;;;;;4916346;29;20368;-65
2022/09/07 09:39:00;;;;;;;;;;;26.20;64.50;;;;;;4916585;29;19974;-66
2022/09/07 09:41:34;;;;;;;;;;;26.00;63.20;;;;;;4916728;29;19911;-66
2022/09/07 09:44:01;;;;;;;;;;;26.20;63.60;;;;;;4916629;29;19918;-66
2022/09/07 09:46:26;;;;;;;;;;;26.50;63.10;;;;;;4916446;29;19934;-65
2022/09/07 09:48:54;;;;;;;;;;;26.50;61.40;;;;;;4916306;29;20372;-64
2022/09/07 09:51:20;;;;;;;;;;;26.30;60.90;;;;;;4916298;29;19915;-66
2022/09/07 09:53:52;;;;;;;;;;;26.00;60.90;;;;;;4905657;29;19918;-64
2022/09/07 09:56:17;;;;;;;;;;;26.00;61.80;;;;;;4916259;29;20375;-64
2022/09/07 09:58:46;;;;;;;;;;;26.00;61.50;;;;;;4916316;29;19919;-65
2022/09/07 10:01:29;;;;;;;;;;;26.00;61.70;;;;;;4916230;29;19919;-65
2022/09/07 10:03:54;;;;;;;;;;;25.90;62.60;;;;;;4915992;29;19918;-65
2022/09/07 10:06:20;;;;;;;;;;;25.80;62.60;;;;;;4916096;29;19911;-65
2022/09/07 10:08:52;;;;;;;;;;;25.90;62.50;;;;;;4915910;29;19930;-65
2022/09/07 10:11:37;;;;;;;;;;;25.90;61.80;;;;;;4916381;29;19915;-66
2022/09/07 10:14:03;;;;;;;;;;;25.70;63.00;;;;;;4915910;29;19934;-64
2022/09/07 10:16:36;;;;;;;;;;;25.90;63.10;;;;;;4915926;29;19911;-66
2022/09/07 10:19:02;;;;;;;;;;;26.00;63.00;;;;;;4916068;29;19914;-64
2022/09/07 10:21:28;;;;;;;;;;;25.90;62.40;;;;;;4916042;29;19918;-64
2022/09/07 10:23:58;;;;;;;;;;;25.90;62.70;;;;;;4904325;29;20388;-64
2022/09/07 10:26:30;;;;;;;;;;;25.60;62.90;;;;;;4915651;29;19916;-65
2022/09/07 10:29:16;;;;;;;;;;;25.60;63.40;;;;;;4915842;29;20014;-65
2022/09/07 10:31:50;;;;;;;;;;;25.40;63.60;;;;;;4915884;29;20283;-64
2022/09/07 10:34:42;;;;;;;;;;;25.60;63.20;;;;;;4915686;29;19927;-66
2022/09/07 10:37:19;;;;;;;;;;;25.50;63.20;;;;;;4929343;29;19919;-65
2022/09/07 10:40:15;;;;;;;;;;;25.50;63.80;;;;;;4915582;29;19911;-66
2022/09/07 10:42:45;;;;;;;;;;;25.60;65.80;;;;;;4923333;29;19918;-67
2022/09/07 10:45:18;;;;;;;;;;;25.70;65.40;;;;;;4915709;29;20050;-66
2022/09/07 10:47:45;;;;;;;;;;;25.70;66.20;;;;;;4915624;29;19918;-66
2022/09/07 10:50:21;;;;;;;;;;;25.70;68.20;;;;;;4915737;29;19986;-64
2022/09/07 10:53:02;;;;;;;;;;;25.60;68.50;;;;;;4905786;29;19915;-64
2022/09/07 10:55:30;;;;;;;;;;;25.70;67.70;;;;;;4915577;29;20284;-64
2022/09/07 10:57:59;;;;;;;;;;;25.80;66.60;;;;;;4915428;29;19981;-64
2022/09/07 11:00:28;;;;;;;;;;;25.80;68.60;;;;;;4915374;29;19915;-65
2022/09/07 11:03:12;;;;;;;;;;;25.70;69.20;;;;;;4915382;29;19918;-66
2022/09/07 11:05:44;;;;;;;;;;;25.80;67.00;;;;;;4915481;29;19911;-65
2022/09/07 11:08:18;;;;;;;;;;;25.90;66.40;;;;;;4915555;29;19970;-66
2022/09/07 11:10:48;;;;;;;;;;;26.00;66.70;;;;;;4915469;29;19923;-65
2022/09/07 11:13:16;;;;;;;;;;;26.00;66.90;;;;;;4915527;29;20009;-65
2022/09/07 11:15:43;;;;;;;;;;;26.10;66.80;;;;;;4915269;29;19923;-66
2022/09/07 11:18:18;;;;;;;;;;;26.10;66.30;;;;;;4915527;29;19918;-68
2022/09/07 11:20:49;;;;;;;;;;;26.20;65.40;;;;;;4915378;29;20043;-64
2022/09/07 11:23:15;;;;;;;;;;;26.10;65.30;;;;;;4899318;29;19955;-66
2022/09/07 11:25:53;;;;;;;;;;;26.10;65.10;;;;;;4915417;29;20054;-66
2022/09/07 11:28:37;;;;;;;;;;;26.20;65.30;;;;;;4915350;29;19922;-65
2022/09/07 11:31:06;;;;;;;;;;;26.20;64.50;;;;;;4915331;29;19962;-67
2022/09/07 11:33:40;;;;;;;;;;;26.00;64.30;;;;;;4915439;29;19916;-66
2022/09/07 11:36:10;;;;;;;;;;;25.90;64.70;;;;;;4915766;29;19974;-64
2022/09/07 11:38:51;;;;;;;;;;;26.10;65.10;;;;;;4918771;29;20368;-65
2022/09/07 11:41:25;;;;;;;;;;;26.20;64.90;;;;;;4918737;29;19911;-64
2022/09/07 11:44:00;;;;;;;;;;;26.30;64.60;;;;;;4918639;29;19970;-65
2022/09/07 11:46:35;;;;;;;;;;;26.50;62.60;;;;;;4918607;29;19922;-66
2022/09/07 11:49:02;;;;;;;;;;;26.60;62.50;;;;;;4918418;29;19921;-65
2022/09/07 11:51:41;;;;;;;;;;;27.00;60.80;;;;;;4918453;29;19967;-65
2022/09/07 11:54:27;;;;;;;;;;;27.00;58.90;;;;;;4902386;29;20296;-64
2022/09/07 11:56:56;;;;;;;;;;;27.10;58.10;;;;;;4918398;29;20521;-64
2022/09/07 11:59:37;;;;;;;;;;;27.30;56.70;;;;;;4918257;29;19966;-65
2022/09/07 12:02:09;;;;;;;;;;;27.40;57.10;;;;;;4918220;29;20009;-66
2022/09/07 12:04:38;;;;;;;;;;;27.50;56.70;;;;;;4918422;29;19922;-64
2022/09/07 12:07:23;;;;;;;;;;;27.50;56.30;;;;;;4918502;29;20022;-64
2022/09/07 12:10:06;;;;;;;;;;;27.60;56.30;;;;;;4918166;29;19923;-64
2022/09/07 12:12:48;;;;;;;;;;;27.20;56.00;;;;;;4917992;29;19962;-65
2022/09/07 12:15:23;;;;;;;;;;;27.10;57.00;;;;;;4918052;29;19923;-65
2022/09/07 12:17:52;;;;;;;;;;;27.00;57.70;;;;;;4918133;29;19911;-65
2022/09/07 12:20:18;;;;;;;;;;;27.10;57.80;;;;;;4917970;29;20280;-64
2022/09/07 12:22:58;;;;;;;;;;;27.10;57.30;;;;;;4906078;29;19911;-65
2022/09/07 12:25:24;;;;;;;;;;;27.20;57.70;;;;;;4917897;28;20340;-65
2022/09/07 12:27:50;;;;;;;;;;;27.30;57.50;;;;;;4917845;29;20367;-65
2022/09/07 12:30:17;;;;;;;;;;;27.50;55.90;;;;;;4917830;29;19959;-66
2022/09/07 12:32:45;;;;;;;;;;;27.60;56.50;;;;;;4917773;29;20446;-66
2022/09/07 12:35:26;;;;;;;;;;;27.70;54.70;;;;;;4917728;29;19962;-65
2022/09/07 12:37:52;;;;;;;;;;;27.70;55.20;;;;;;4917643;29;19925;-65
2022/09/07 12:40:31;;;;;;;;;;;27.50;55.70;;;;;;4917741;29;20006;-65
2022/09/07 12:43:11;;;;;;;;;;;27.40;54.70;;;;;;4917909;29;19955;-65
2022/09/07 12:45:37;;;;;;;;;;;27.40;54.50;;;;;;4917525;29;19918;-65
2022/09/07 12:48:11;;;;;;;;;;;27.50;54.20;;;;;;4924050;29;19915;-65
2022/09/07 12:50:57;;;;;;;;;;;27.50;54.70;;;;;;4917275;29;19923;-65
2022/09/07 12:53:23;;;;;;;;;;;27.50;54.50;;;;;;4904088;29;19911;-65
2022/09/07 12:55:54;;;;;;;;;;;27.40;54.80;;;;;;4917668;29;19926;-65
2022/09/07 12:58:19;;;;;;;;;;;27.70;54.90;;;;;;4918739;28;19919;-65
2022/09/07 13:00:50;;;;;;;;;;;28.00;54.90;;;;;;4918677;29;19915;-65
2022/09/07 13:03:31;;;;;;;;;;;28.20;54.90;;;;;;4923905;29;19939;-66
2022/09/07 13:06:02;;;;;;;;;;;28.30;54.70;;;;;;4932531;29;19978;-68
2022/09/07 13:08:37;;;;;;;;;;;28.40;54.40;;;;;;4928894;29;19919;-66
2022/09/07 13:11:20;;;;;;;;;;;28.40;53.30;;;;;;4927696;29;19923;-67
2022/09/07 13:13:56;;;;;;;;;;;28.60;52.30;;;;;;4926104;29;19915;-66
2022/09/07 13:16:25;;;;;;;;;;;28.80;52.50;;;;;;4921304;29;20000;-65
2022/09/07 13:18:50;;;;;;;;;;;28.80;53.10;;;;;;4918031;29;19911;-65
2022/09/07 13:21:17;;;;;;;;;;;28.80;54.20;;;;;;4918098;29;20423;-65
2022/09/07 13:23:50;;;;;;;;;;;28.60;53.20;;;;;;4907430;29;19921;-66
2022/09/07 13:26:34;;;;;;;;;;;28.40;54.00;;;;;;4917712;29;19915;-67
2022/09/07 13:29:02;;;;;;;;;;;28.30;53.30;;;;;;4918610;29;19919;-68
2022/09/07 13:31:43;;;;;;;;;;;28.30;53.70;;;;;;4917902;29;19933;-64
2022/09/07 13:34:27;;;;;;;;;;;28.30;54.40;;;;;;4916705;29;19911;-66
2022/09/07 13:36:53;;;;;;;;;;;28.30;53.60;;;;;;4917645;29;19919;-68
2022/09/07 13:39:19;;;;;;;;;;;28.40;54.30;;;;;;4916571;29;20287;-65
2022/09/07 13:41:47;;;;;;;;;;;28.40;53.40;;;;;;4916322;29;19915;-65
2022/09/07 13:44:17;;;;;;;;;;;28.40;54.20;;;;;;4916424;29;20006;-65
2022/09/07 13:46:42;;;;;;;;;;;28.40;54.50;;;;;;4916188;29;20402;-66
2022/09/07 13:49:17;;;;;;;;;;;28.40;53.90;;;;;;4916105;29;19911;-67
2022/09/07 13:51:48;;;;;;;;;;;28.40;53.70;;;;;;4916193;29;19915;-66
2022/09/07 13:54:13;;;;;;;;;;;28.40;53.90;;;;;;4900891;29;19958;-67
2022/09/07 13:57:05;;;;;;;;;;;28.40;53.70;;;;;;4916217;29;19915;-64
2022/09/07 13:59:33;;;;;;;;;;;28.40;54.20;;;;;;4921237;29;20069;-64
2022/09/07 14:01:58;;;;;;;;;;;28.30;54.40;;;;;;4916147;29;19918;-67
2022/09/07 14:04:30;;;;;;;;;;;28.20;54.50;;;;;;4916189;29;19912;-70
2022/09/07 14:07:03;;;;;;;;;;;28.20;54.00;;;;;;4915727;29;20217;-67
2022/09/07 14:09:29;;;;;;;;;;;28.20;53.50;;;;;;4915785;29;19962;-68
2022/09/07 14:11:54;;;;;;;;;;;28.40;53.30;;;;;;4915783;29;19970;-68
2022/09/07 14:14:24;;;;;;;;;;;28.40;53.40;;;;;;4915870;29;19911;-68
2022/09/07 14:16:58;;;;;;;;;;;28.40;52.90;;;;;;4915964;29;19937;-69
2022/09/07 14:19:25;;;;;;;;;;;28.40;52.10;;;;;;4915784;29;19911;-68
2022/09/07 14:21:55;;;;;;;;;;;28.50;52.60;;;;;;4916067;29;19922;-69
2022/09/07 14:24:28;;;;;;;;;;;28.50;52.80;;;;;;4905454;29;20012;-66
2022/09/07 14:26:54;;;;;;;;;;;28.50;53.40;;;;;;4916405;29;20300;-66